Mariq — SVA2152 — position and weather

sailwx.info

Track history (hours):
 
Tides and Currents Weather Stations Pressure Air Temp Water Temp Dewpoint Dewpoint Depression Visibility Wind Speed Wind Dir Waves Ship Positions

Mariq

Last reported at 2014-Sep-22 09:33 UTC. Time now 2014-Oct-01 18:30 UTC.
Position N 38°02' E 023°36'.
Warning: this ship's position is 9 days out of date.

Length 57 m.

Type: Tanker. MMSI: 239758424.

Date/timePositionNaut miles runAvg speedWind from/ knotsBaromVisibWave heightAir tempDewpointWater temp
2014-Sep-22 09:33N 38°02' E 023°36'0 0.0
2014-Sep-22 08:33N 38°02' E 023°36'0 0.1
2014-Sep-22 07:33N 38°02' E 023°36'7 6.8
2014-Sep-22 06:33N 37°55' E 023°35'9 8.8
2014-Sep-22 05:33N 37°48' E 023°41'8 8.1
2014-Sep-22 04:33N 37°41' E 023°46'7 7.2
2014-Sep-22 03:33N 37°42' E 023°55'0 0.0
2014-Sep-22 02:33N 37°42' E 023°55'0 0.1
2014-Sep-22 01:31N 37°43' E 023°55'0 0.0
2014-Sep-22 00:33N 37°43' E 023°55'0 0.0
2014-Sep-21 23:14N 37°42' E 023°55'2 2.6
2014-Sep-21 22:34N 37°41' E 023°55'9 8.7
2014-Sep-21 21:29N 37°35' E 024°05'18 9.5
2014-Sep-21 19:33N 37°30' E 024°27'10 9.9
2014-Sep-21 18:31N 37°26' E 024°39'1010.0
2014-Sep-21 17:32N 37°22' E 024°50'1010.0
2014-Sep-21 16:33N 37°19' E 025°02'1010.0
2014-Sep-21 15:33N 37°16' E 025°14'1010.0
2014-Sep-21 14:33N 37°14' E 025°26'1010.1
2014-Sep-21 13:33N 37°11' E 025°38'9 9.4
2014-Sep-21 12:33N 37°09' E 025°50'9 8.7
2014-Sep-21 11:33N 37°06' E 025°60'9 9.0
2014-Sep-21 10:33N 37°03' E 026°10'17 2.4
2014-Sep-21 03:33N 37°05' E 026°32'15 4.9
2014-Sep-21 00:33N 37°19' E 026°33'0 0.0
2014-Sep-20 23:20N 37°19' E 026°33'  
2014-Sep-15 23:30N 37°05' E 027°02'1110.1
2014-Sep-15 22:26N 37°15' E 026°55'910.2
2014-Sep-15 21:33N 37°22' E 026°48'4 3.9
2014-Sep-15 20:33N 37°23' E 026°43'0 0.5
2014-Sep-15 19:32N 37°23' E 026°44'0 0.0
2014-Sep-15 18:28N 37°23' E 026°44'0 0.0
2014-Sep-15 17:29N 37°23' E 026°44'0 0.0
2014-Sep-15 16:32N 37°23' E 026°44'0 0.0
2014-Sep-15 15:33N 37°23' E 026°44'0 0.0
2014-Sep-15 14:22N 37°23' E 026°44'0 0.0
2014-Sep-15 13:32N 37°23' E 026°44'0 0.0
2014-Sep-15 12:33N 37°23' E 026°44'1 0.2
2014-Sep-15 08:21N 37°22' E 026°44'5 6.0
2014-Sep-15 07:33N 37°17' E 026°45'1 0.3
2014-Sep-15 05:10N 37°18' E 026°46'0 0.0
2014-Sep-15 02:33N 37°18' E 026°46'0 0.0
2014-Sep-15 01:34N 37°18' E 026°46'0 0.0
2014-Sep-15 00:34N 37°18' E 026°46'0 0.0
2014-Sep-14 23:34N 37°18' E 026°46'0 0.0
2014-Sep-14 22:33N 37°18' E 026°46'0 0.0
2014-Sep-14 21:34N 37°18' E 026°46'0 0.0
2014-Sep-14 20:33N 37°18' E 026°46'0 0.0
2014-Sep-14 19:30N 37°18' E 026°46'0 0.0
2014-Sep-14 18:32N 37°18' E 026°46'0 0.0
2014-Sep-14 17:33N 37°18' E 026°46'0 0.0
2014-Sep-14 16:33N 37°18' E 026°46'6 5.9
2014-Sep-14 15:33N 37°13' E 026°51'9 8.4
2014-Sep-14 14:32N 37°07' E 026°58'9 8.2
2014-Sep-14 13:23N 37°01' E 027°07'17 7.5
2014-Sep-14 11:09N 36°49' E 027°22'14 0.6
2014-Sep-13 11:11N 36°59' E 027°10'28 1.3
2014-Sep-12 13:27N 37°25' E 026°56'9 9.5
2014-Sep-12 12:32N 37°21' E 026°46'  
Track history (hours):
 
Tides and Currents Weather Stations Pressure Air Temp Water Temp Dewpoint Dewpoint Depression Visibility Wind Speed Wind Dir Waves Ship Positions

Mariq

Last reported at 2014-Sep-22 09:33 UTC. Time now 2014-Oct-01 18:30 UTC.
Position N 38°02' E 023°36'.
Warning: this ship's position is 9 days out of date.

Length 57 m.

Type: Tanker. MMSI: 239758424.

Date/timePositionNaut miles runAvg speedWind from/ knotsBaromVisibWave heightAir tempDewpointWater temp
2014-Sep-22 09:33N 38°02' E 023°36'0 0.0
2014-Sep-22 08:33N 38°02' E 023°36'0 0.1
2014-Sep-22 07:33N 38°02' E 023°36'7 6.8
2014-Sep-22 06:33N 37°55' E 023°35'9 8.8
2014-Sep-22 05:33N 37°48' E 023°41'8 8.1
2014-Sep-22 04:33N 37°41' E 023°46'7 7.2
2014-Sep-22 03:33N 37°42' E 023°55'0 0.0
2014-Sep-22 02:33N 37°42' E 023°55'0 0.1
2014-Sep-22 01:31N 37°43' E 023°55'0 0.0
2014-Sep-22 00:33N 37°43' E 023°55'0 0.0
2014-Sep-21 23:14N 37°42' E 023°55'2 2.6
2014-Sep-21 22:34N 37°41' E 023°55'9 8.7
2014-Sep-21 21:29N 37°35' E 024°05'18 9.5
2014-Sep-21 19:33N 37°30' E 024°27'10 9.9
2014-Sep-21 18:31N 37°26' E 024°39'1010.0
2014-Sep-21 17:32N 37°22' E 024°50'1010.0
2014-Sep-21 16:33N 37°19' E 025°02'1010.0
2014-Sep-21 15:33N 37°16' E 025°14'1010.0
2014-Sep-21 14:33N 37°14' E 025°26'1010.1
2014-Sep-21 13:33N 37°11' E 025°38'9 9.4
2014-Sep-21 12:33N 37°09' E 025°50'9 8.7
2014-Sep-21 11:33N 37°06' E 025°60'9 9.0
2014-Sep-21 10:33N 37°03' E 026°10'17 2.4
2014-Sep-21 03:33N 37°05' E 026°32'15 4.9
2014-Sep-21 00:33N 37°19' E 026°33'0 0.0
2014-Sep-20 23:20N 37°19' E 026°33'  
2014-Sep-15 23:30N 37°05' E 027°02'1110.1
2014-Sep-15 22:26N 37°15' E 026°55'910.2
2014-Sep-15 21:33N 37°22' E 026°48'4 3.9
2014-Sep-15 20:33N 37°23' E 026°43'0 0.5
2014-Sep-15 19:32N 37°23' E 026°44'0 0.0
2014-Sep-15 18:28N 37°23' E 026°44'0 0.0
2014-Sep-15 17:29N 37°23' E 026°44'0 0.0
2014-Sep-15 16:32N 37°23' E 026°44'0 0.0
2014-Sep-15 15:33N 37°23' E 026°44'0 0.0
2014-Sep-15 14:22N 37°23' E 026°44'0 0.0
2014-Sep-15 13:32N 37°23' E 026°44'0 0.0
2014-Sep-15 12:33N 37°23' E 026°44'1 0.2
2014-Sep-15 08:21N 37°22' E 026°44'5 6.0
2014-Sep-15 07:33N 37°17' E 026°45'1 0.3
2014-Sep-15 05:10N 37°18' E 026°46'0 0.0
2014-Sep-15 02:33N 37°18' E 026°46'0 0.0
2014-Sep-15 01:34N 37°18' E 026°46'0 0.0
2014-Sep-15 00:34N 37°18' E 026°46'0 0.0
2014-Sep-14 23:34N 37°18' E 026°46'0 0.0
2014-Sep-14 22:33N 37°18' E 026°46'0 0.0
2014-Sep-14 21:34N 37°18' E 026°46'0 0.0
2014-Sep-14 20:33N 37°18' E 026°46'0 0.0
2014-Sep-14 19:30N 37°18' E 026°46'0 0.0
2014-Sep-14 18:32N 37°18' E 026°46'0 0.0
2014-Sep-14 17:33N 37°18' E 026°46'0 0.0
2014-Sep-14 16:33N 37°18' E 026°46'6 5.9
2014-Sep-14 15:33N 37°13' E 026°51'9 8.4
2014-Sep-14 14:32N 37°07' E 026°58'9 8.2
2014-Sep-14 13:23N 37°01' E 027°07'17 7.5
2014-Sep-14 11:09N 36°49' E 027°22'14 0.6
2014-Sep-13 11:11N 36°59' E 027°10'28 1.3
2014-Sep-12 13:27N 37°25' E 026°56'9 9.5
2014-Sep-12 12:32N 37°21' E 026°46'  

Dump ship's entire track history